createdAt,value
2019-04-16T00:00:17.272Z,75.8789
2019-04-16T00:01:03.567Z,75.8789
2019-04-16T00:01:51.657Z,75.9827
2019-04-16T00:02:38.581Z,76.1230
2019-04-16T00:03:24.524Z,76.1230
2019-04-16T00:04:11.872Z,76.1230
2019-04-16T00:04:59.538Z,76.0193
2019-04-16T00:05:46.862Z,76.0193
2019-04-16T00:06:34.294Z,76.0193
2019-04-16T00:07:21.613Z,76.1230
2019-04-16T00:08:19.333Z,76.1230
2019-04-16T00:08:58.900Z,76.2268
2019-04-16T00:09:46.274Z,76.2268
2019-04-16T00:10:33.788Z,76.2268
2019-04-16T00:11:21.253Z,76.1963
2019-04-16T00:12:08.110Z,76.1963
2019-04-16T00:12:55.380Z,76.2268
2019-04-16T00:13:41.905Z,76.1963
2019-04-16T00:14:29.274Z,76.1963
2019-04-16T00:15:18.060Z,76.1963
2019-04-16T00:16:04.964Z,76.1963
2019-04-16T00:16:51.524Z,76.1963
2019-04-16T00:17:38.906Z,76.4038
2019-04-16T00:18:26.692Z,76.6113
2019-04-16T00:19:14.027Z,76.6113
2019-04-16T00:20:00.560Z,76.6113
2019-04-16T00:20:47.489Z,76.6113
2019-04-16T00:21:34.082Z,76.5076
2019-04-16T00:22:21.005Z,76.5076
2019-04-16T00:23:07.964Z,76.5076
2019-04-16T00:23:55.529Z,76.4038
2019-04-16T00:24:42.036Z,76.4038
2019-04-16T00:25:28.329Z,76.3000
2019-04-16T00:26:15.570Z,76.1963
2019-04-16T00:27:02.953Z,76.0925
2019-04-16T00:27:49.473Z,76.0925
2019-04-16T00:28:36.524Z,75.9827
2019-04-16T00:29:23.956Z,75.9827
2019-04-16T00:30:11.227Z,75.9827
2019-04-16T00:30:57.622Z,75.8789
2019-04-16T00:31:44.882Z,75.8789
2019-04-16T00:32:32.366Z,75.8789
2019-04-16T00:33:18.951Z,75.8789
2019-04-16T00:34:05.749Z,75.8789
2019-04-16T00:34:52.977Z,75.8789
2019-04-16T00:35:38.543Z,75.8789
2019-04-16T00:36:24.820Z,75.9827
2019-04-16T00:37:11.603Z,76.0925
2019-04-16T00:37:58.434Z,76.0925
2019-04-16T00:38:45.020Z,76.0925
2019-04-16T00:39:32.134Z,76.0925
2019-04-16T00:40:18.689Z,76.0925
2019-04-16T00:41:06.124Z,76.0925
2019-04-16T00:41:53.585Z,76.0925
2019-04-16T00:42:39.892Z,76.0925
2019-04-16T00:43:27.469Z,76.0925
2019-04-16T00:44:14.753Z,76.0925
2019-04-16T00:45:02.026Z,76.0925
2019-04-16T00:45:48.968Z,76.1963
2019-04-16T00:46:36.417Z,76.3000
2019-04-16T00:47:24.033Z,76.3000
2019-04-16T00:48:12.031Z,76.4038
2019-04-16T00:48:59.358Z,76.6113
2019-04-16T00:49:47.100Z,76.7151
2019-04-16T00:50:34.473Z,76.6113
2019-04-16T00:51:21.936Z,76.6113
2019-04-16T00:52:08.322Z,76.6113
2019-04-16T00:52:55.663Z,76.5076
2019-04-16T00:53:43.246Z,76.5076
2019-04-16T00:54:30.681Z,76.6479
2019-04-16T00:55:16.986Z,76.6113
2019-04-16T00:56:04.844Z,76.6479
2019-04-16T00:56:52.168Z,76.5442
2019-04-16T00:57:38.618Z,76.5442
2019-04-16T00:58:24.914Z,76.4404
2019-04-16T00:59:12.443Z,76.3306
2019-04-16T00:59:58.745Z,76.3306
2019-04-16T01:00:46.496Z,76.2268
2019-04-16T01:01:32.792Z,76.2268
2019-04-16T01:02:19.958Z,76.1230
2019-04-16T01:03:07.197Z,76.0193
2019-04-16T01:03:54.667Z,76.0193
2019-04-16T01:04:40.972Z,75.9155
2019-04-16T01:05:29.084Z,75.9155
2019-04-16T01:06:16.448Z,75.8118
2019-04-16T01:07:03.989Z,75.8118
2019-04-16T01:07:50.876Z,75.7080
2019-04-16T01:08:38.315Z,75.7385
2019-04-16T01:09:25.699Z,75.7385
2019-04-16T01:10:13.198Z,75.7385
2019-04-16T01:11:00.175Z,75.8423
2019-04-16T01:11:49.034Z,75.9521
2019-04-16T01:12:35.588Z,75.9521
2019-04-16T01:13:24.492Z,75.9521
2019-04-16T01:14:11.964Z,75.9521
2019-04-16T01:15:00.899Z,75.8423
2019-04-16T01:15:48.689Z,75.8423
2019-04-16T01:16:36.137Z,75.9521
2019-04-16T01:17:23.205Z,75.9521
2019-04-16T01:18:09.751Z,76.0559
2019-04-16T01:18:57.204Z,76.0559
2019-04-16T01:19:44.845Z,76.0559
2019-04-16T01:20:31.849Z,75.9521
2019-04-16T01:21:19.392Z,75.9521
2019-04-16T01:22:06.693Z,75.9521
2019-04-16T01:22:54.013Z,75.9521
2019-04-16T01:23:39.979Z,75.8423
2019-04-16T01:24:27.432Z,75.8423
2019-04-16T01:25:13.728Z,75.7385
2019-04-16T01:26:01.144Z,75.7385
2019-04-16T01:26:48.542Z,75.7385
2019-04-16T01:27:35.673Z,75.6348
2019-04-16T01:28:23.023Z,75.6348
2019-04-16T01:29:10.382Z,75.7385
2019-04-16T01:29:57.578Z,75.8423
2019-04-16T01:30:44.735Z,75.8423
2019-04-16T01:31:32.396Z,75.8423
2019-04-16T01:32:20.077Z,75.8423
2019-04-16T01:33:07.419Z,75.8789
2019-04-16T01:33:54.571Z,75.7751
2019-04-16T01:34:41.897Z,75.7751
2019-04-16T01:35:29.209Z,75.6714
2019-04-16T01:36:16.460Z,75.6714
2019-04-16T01:37:04.573Z,75.6714
2019-04-16T01:37:56.485Z,75.6714
2019-04-16T01:38:44.565Z,75.6714
2019-04-16T01:39:31.905Z,75.6714
2019-04-16T01:40:19.220Z,75.6714
2019-04-16T01:41:06.722Z,75.6714
2019-04-16T01:41:54.347Z,75.6714
2019-04-16T01:42:41.216Z,75.6714
2019-04-16T01:43:28.689Z,75.6714
2019-04-16T01:44:15.010Z,75.5676
2019-04-16T01:45:02.541Z,75.5676
2019-04-16T01:45:49.854Z,75.5676
2019-04-16T01:46:37.374Z,75.4639
2019-04-16T01:47:24.311Z,75.4944
2019-04-16T01:48:10.829Z,75.4639
2019-04-16T01:48:58.302Z,75.5981
2019-04-16T01:49:45.879Z,75.5981
2019-04-16T01:50:33.206Z,75.5981
2019-04-16T01:51:19.929Z,75.5981
2019-04-16T01:52:07.621Z,75.4944
2019-04-16T01:52:55.271Z,75.4944
2019-04-16T01:53:42.676Z,75.4944
2019-04-16T01:54:29.510Z,75.4944
2019-04-16T01:55:15.064Z,75.3906
2019-04-16T01:56:02.636Z,75.3906
2019-04-16T01:56:49.844Z,75.3906
2019-04-16T01:57:36.712Z,75.2869
2019-04-16T01:58:24.103Z,75.2869
2019-04-16T01:59:11.652Z,75.2869
2019-04-16T01:59:58.740Z,75.3906
2019-04-16T02:00:47.105Z,75.4944
2019-04-16T02:01:34.672Z,75.7019
2019-04-16T02:02:22.091Z,75.8118
2019-04-16T02:03:09.688Z,75.9155
2019-04-16T02:03:55.981Z,76.0193
2019-04-16T02:04:43.592Z,76.0193
2019-04-16T02:05:30.823Z,76.1230
2019-04-16T02:06:18.349Z,76.1230
2019-04-16T02:07:04.634Z,76.0193
2019-04-16T02:07:52.671Z,76.0193
2019-04-16T02:08:39.969Z,75.9155
2019-04-16T02:09:26.510Z,75.8118
2019-04-16T02:10:13.460Z,75.7019
2019-04-16T02:11:01.013Z,75.7019
2019-04-16T02:11:47.992Z,75.5981
2019-04-16T02:12:35.478Z,75.7019
2019-04-16T02:13:22.353Z,75.7019
2019-04-16T02:14:09.795Z,75.7019
2019-04-16T02:14:57.055Z,75.5981
2019-04-16T02:15:44.317Z,75.7019
2019-04-16T02:16:31.286Z,75.8118
2019-04-16T02:17:19.201Z,76.0193
2019-04-16T02:18:06.476Z,76.0193
2019-04-16T02:18:53.982Z,76.0193
2019-04-16T02:19:40.869Z,76.0193
2019-04-16T02:20:28.429Z,76.0193
2019-04-16T02:21:15.853Z,75.9155
2019-04-16T02:22:02.194Z,75.8118
2019-04-16T02:22:48.493Z,75.8118
2019-04-16T02:23:36.347Z,75.8118
2019-04-16T02:24:22.694Z,75.8118
2019-04-16T02:25:10.513Z,75.7019
2019-04-16T02:25:57.554Z,75.7019
2019-04-16T02:26:44.086Z,75.5981
2019-04-16T02:27:31.473Z,75.4944
2019-04-16T02:28:21.451Z,75.4944
2019-04-16T02:29:09.436Z,75.3906
2019-04-16T02:29:58.563Z,75.3906
2019-04-16T02:30:49.343Z,75.3906
2019-04-16T02:31:36.657Z,75.3906
2019-04-16T02:32:22.996Z,75.3906
2019-04-16T02:33:10.352Z,75.3906
2019-04-16T02:33:58.331Z,75.3906
2019-04-16T02:34:45.660Z,75.4272
2019-04-16T02:35:31.871Z,75.4272
2019-04-16T02:36:18.948Z,75.4272
2019-04-16T02:37:05.495Z,75.4272
2019-04-16T02:37:52.888Z,75.4272
2019-04-16T02:38:46.322Z,75.5310
2019-04-16T02:39:47.664Z,75.5310
2019-04-16T02:40:25.314Z,75.6348
2019-04-16T02:41:12.670Z,75.7385
2019-04-16T02:41:58.561Z,75.8423
2019-04-16T02:42:46.108Z,75.9155
2019-04-16T02:43:39.676Z,76.0193
2019-04-16T02:44:26.094Z,76.1230
2019-04-16T02:45:13.142Z,76.1230
2019-04-16T02:46:01.230Z,76.1230
2019-04-16T02:46:48.261Z,76.1230
2019-04-16T02:47:39.947Z,76.1230
2019-04-16T02:48:27.095Z,76.0193
2019-04-16T02:49:14.603Z,76.0193
2019-04-16T02:50:01.302Z,76.0193
2019-04-16T02:50:48.631Z,76.0193
2019-04-16T02:51:39.594Z,76.0193
2019-04-16T02:52:28.493Z,75.9155
2019-04-16T02:53:14.816Z,75.9155
2019-04-16T02:54:01.427Z,76.0193
2019-04-16T02:54:49.103Z,76.0193
2019-04-16T02:55:42.634Z,76.0193
2019-04-16T02:56:28.513Z,76.0193
2019-04-16T02:57:15.535Z,76.1230
2019-04-16T02:58:03.590Z,76.1230
2019-04-16T02:58:50.927Z,76.2268
2019-04-16T02:59:37.871Z,76.1230
2019-04-16T03:00:25.328Z,76.1230
2019-04-16T03:01:12.828Z,76.0193
2019-04-16T03:02:00.187Z,76.0193
2019-04-16T03:02:47.382Z,76.1230
2019-04-16T03:03:33.690Z,76.2268
2019-04-16T03:04:21.524Z,76.2268
2019-04-16T03:05:08.735Z,76.2268
2019-04-16T03:06:00.646Z,76.2268
2019-04-16T03:06:47.910Z,76.2268
2019-04-16T03:07:35.258Z,76.1230
2019-04-16T03:08:22.322Z,76.1230
2019-04-16T03:09:09.967Z,76.2268
2019-04-16T03:10:01.678Z,76.2268
2019-04-16T03:10:49.693Z,76.2268
2019-04-16T03:11:36.657Z,76.2268
2019-04-16T03:12:23.502Z,76.2268
2019-04-16T03:13:10.932Z,76.2268
2019-04-16T03:13:59.371Z,76.2268
2019-04-16T03:14:46.840Z,76.3306
2019-04-16T03:15:34.233Z,76.3000
2019-04-16T03:16:21.098Z,76.3000
2019-04-16T03:17:10.626Z,76.3000
2019-04-16T03:17:59.813Z,76.1963
2019-04-16T03:18:47.548Z,76.1963
2019-04-16T03:19:38.805Z,76.1963
2019-04-16T03:20:25.360Z,76.3000
2019-04-16T03:21:12.759Z,76.1963
2019-04-16T03:22:02.131Z,76.2268
2019-04-16T03:22:50.439Z,76.1230
2019-04-16T03:23:37.505Z,76.1230
2019-04-16T03:24:25.193Z,76.0193
2019-04-16T03:25:13.954Z,76.0193
2019-04-16T03:26:01.759Z,76.1230
2019-04-16T03:26:50.498Z,76.1230
2019-04-16T03:27:38.710Z,76.1230
2019-04-16T03:28:27.273Z,76.2268
2019-04-16T03:29:15.693Z,76.3306
2019-04-16T03:30:03.405Z,76.3306
2019-04-16T03:30:53.119Z,76.4404
2019-04-16T03:31:40.127Z,76.4404
2019-04-16T03:32:33.554Z,76.4404
2019-04-16T03:33:21.482Z,76.5442
2019-04-16T03:34:08.556Z,76.5442
2019-04-16T03:34:56.598Z,76.5076
2019-04-16T03:35:44.044Z,76.4038
2019-04-16T03:36:30.307Z,76.4038
2019-04-16T03:37:16.697Z,76.4038
2019-04-16T03:38:05.178Z,76.6479
2019-04-16T03:38:53.148Z,77.0325
2019-04-16T03:39:43.624Z,77.5513
2019-04-16T03:40:31.828Z,78.1799
2019-04-16T03:41:18.778Z,78.6011
2019-04-16T03:42:06.167Z,78.8086
2019-04-16T03:42:52.470Z,78.9856
2019-04-16T03:43:39.602Z,78.9856
2019-04-16T03:44:27.067Z,78.9856
2019-04-16T03:45:14.639Z,78.7720
2019-04-16T03:46:01.631Z,78.5645
2019-04-16T03:46:48.164Z,78.2532
2019-04-16T03:47:34.997Z,78.1494
2019-04-16T03:48:23.440Z,78.0396
2019-04-16T03:49:11.671Z,77.9358
2019-04-16T03:49:59.315Z,77.7283
2019-04-16T03:50:47.702Z,77.5208
2019-04-16T03:51:35.523Z,77.4170
2019-04-16T03:52:23.452Z,77.2034
2019-04-16T03:53:10.857Z,76.9958
2019-04-16T03:53:58.280Z,76.8921
2019-04-16T03:54:45.248Z,76.7883
2019-04-16T03:55:32.142Z,76.6846
2019-04-16T03:56:18.654Z,76.6846
2019-04-16T03:57:05.593Z,76.7151
2019-04-16T03:57:53.179Z,76.7151
2019-04-16T03:58:40.512Z,76.7151
2019-04-16T03:59:27.563Z,76.7151
2019-04-16T04:00:15.017Z,76.7151
2019-04-16T04:01:22.845Z,76.6113
2019-04-16T04:02:09.261Z,76.6113
2019-04-16T04:02:57.366Z,76.6113
2019-04-16T04:03:44.405Z,76.5076
2019-04-16T04:04:30.938Z,76.5076
2019-04-16T04:05:18.297Z,76.6113
2019-04-16T04:06:06.812Z,76.6113
2019-04-16T04:06:55.284Z,76.6113
2019-04-16T04:07:44.211Z,76.6113
2019-04-16T04:08:31.949Z,76.6113
2019-04-16T04:09:22.155Z,76.7151
2019-04-16T04:10:10.814Z,76.7151
2019-04-16T04:10:57.164Z,76.7151
2019-04-16T04:11:44.652Z,76.7151
2019-04-16T04:12:32.316Z,76.7151
2019-04-16T04:13:19.324Z,76.8188
2019-04-16T04:14:06.494Z,76.9287
2019-04-16T04:14:55.168Z,76.9287
2019-04-16T04:15:42.500Z,76.9287
2019-04-16T04:16:30.561Z,76.9287
2019-04-16T04:17:20.555Z,76.9287
2019-04-16T04:18:11.785Z,76.9287
2019-04-16T04:18:59.856Z,76.9287
2019-04-16T04:19:47.097Z,76.9287
2019-04-16T04:20:33.577Z,76.9287
2019-04-16T04:21:22.304Z,76.9287
2019-04-16T04:22:10.306Z,76.9287
2019-04-16T04:22:57.884Z,76.8188
2019-04-16T04:23:45.352Z,76.8188
2019-04-16T04:24:32.217Z,76.8188
2019-04-16T04:25:19.839Z,76.8188
2019-04-16T04:26:08.932Z,76.9287
2019-04-16T04:26:57.639Z,76.9287
2019-04-16T04:27:46.713Z,77.0325
2019-04-16T04:28:35.488Z,77.0325
2019-04-16T04:29:24.689Z,77.0325
2019-04-16T04:30:11.416Z,77.1362
2019-04-16T04:31:00.892Z,77.1362
2019-04-16T04:31:49.437Z,77.2400
2019-04-16T04:32:36.628Z,77.2034
2019-04-16T04:33:24.094Z,77.2034
2019-04-16T04:34:14.853Z,77.2034
2019-04-16T04:35:03.212Z,77.2034
2019-04-16T04:35:52.008Z,77.3071
2019-04-16T04:36:39.639Z,77.5208
2019-04-16T04:37:30.986Z,77.6245
2019-04-16T04:38:19.185Z,77.6245
2019-04-16T04:39:09.884Z,77.5208
2019-04-16T04:39:58.390Z,77.5208
2019-04-16T04:40:50.581Z,77.5208
2019-04-16T04:41:37.317Z,77.5208
2019-04-16T04:42:25.620Z,77.5879
2019-04-16T04:43:15.457Z,77.5879
2019-04-16T04:44:04.300Z,77.5879
2019-04-16T04:44:52.819Z,77.5879
2019-04-16T04:45:40.798Z,77.5879
2019-04-16T04:46:28.911Z,77.5879
2019-04-16T04:47:19.350Z,77.5879
2019-04-16T04:48:11.035Z,77.6917
2019-04-16T04:49:00.280Z,77.8992
2019-04-16T04:49:47.866Z,78.1799
2019-04-16T04:50:35.434Z,78.3875
2019-04-16T04:51:22.578Z,78.4912
2019-04-16T04:52:13.587Z,78.6011
2019-04-16T04:53:02.217Z,78.7048
2019-04-16T04:53:50.269Z,78.6682
2019-04-16T04:54:39.321Z,78.7720
2019-04-16T04:55:27.062Z,78.8757
2019-04-16T04:56:14.103Z,78.9795
2019-04-16T04:57:00.404Z,79.0466
2019-04-16T04:57:48.336Z,79.1504
2019-04-16T04:58:35.245Z,79.2603
2019-04-16T04:59:22.956Z,79.3640
2019-04-16T05:00:09.746Z,79.5715
2019-04-16T05:00:57.355Z,79.8462
2019-04-16T05:01:44.659Z,79.9500
2019-04-16T05:02:32.087Z,80.0537
2019-04-16T05:03:18.389Z,80.1636
2019-04-16T05:04:05.597Z,80.2307
2019-04-16T05:04:53.246Z,80.2307
2019-04-16T05:05:40.152Z,80.3345
2019-04-16T05:06:27.770Z,80.3345
2019-04-16T05:07:15.867Z,80.1941
2019-04-16T05:08:03.220Z,79.9805
2019-04-16T05:08:50.353Z,80.0903
2019-04-16T05:09:36.889Z,80.0903
2019-04-16T05:10:25.002Z,80.1941
2019-04-16T05:11:12.576Z,80.1575
2019-04-16T05:12:02.816Z,80.0537
2019-04-16T05:12:52.611Z,80.0537
2019-04-16T05:13:39.641Z,80.0537
2019-04-16T05:14:27.060Z,80.0537
2019-04-16T05:15:14.634Z,80.2246
2019-04-16T05:16:01.972Z,80.5359
2019-04-16T05:16:50.630Z,80.6396
2019-04-16T05:17:38.563Z,80.9509
2019-04-16T05:18:26.777Z,81.0547
2019-04-16T05:19:14.880Z,81.3660
2019-04-16T05:20:03.052Z,81.4331
2019-04-16T05:20:50.655Z,81.5369
2019-04-16T05:21:37.858Z,81.6467
2019-04-16T05:22:24.155Z,81.8542
2019-04-16T05:23:11.917Z,82.0251
2019-04-16T05:23:58.847Z,82.1289
2019-04-16T05:24:46.694Z,82.2327
2019-04-16T05:25:34.122Z,82.2998
2019-04-16T05:26:21.738Z,82.2998
2019-04-16T05:27:09.444Z,82.4036
2019-04-16T05:27:57.375Z,82.2998
2019-04-16T05:28:45.352Z,82.1960
2019-04-16T05:29:33.208Z,82.1533
2019-04-16T05:30:21.690Z,82.1533
2019-04-16T05:31:09.699Z,82.1533
2019-04-16T05:31:57.370Z,82.1533
2019-04-16T05:32:45.797Z,82.1167
2019-04-16T05:33:34.490Z,82.0129
2019-04-16T05:34:24.203Z,81.9092
2019-04-16T05:35:11.168Z,81.7688
2019-04-16T05:35:59.444Z,81.6650
2019-04-16T05:36:47.990Z,81.5613
2019-04-16T05:37:35.927Z,81.4209
2019-04-16T05:38:23.581Z,81.3171
2019-04-16T05:39:12.068Z,81.2134
2019-04-16T05:39:59.559Z,81.0730
2019-04-16T05:40:47.108Z,80.9692
2019-04-16T05:41:34.042Z,80.8289
2019-04-16T05:42:25.884Z,80.6213
2019-04-16T05:43:13.798Z,80.3711
2019-04-16T05:44:02.110Z,80.0598
2019-04-16T05:44:49.161Z,79.8157
2019-04-16T05:45:37.675Z,79.7119
2019-04-16T05:46:25.474Z,79.6143
2019-04-16T05:47:16.834Z,79.4739
2019-04-16T05:48:04.426Z,79.3701
2019-04-16T05:48:53.997Z,79.2297
2019-04-16T05:49:42.869Z,79.1260
2019-04-16T05:50:30.343Z,79.0222
2019-04-16T05:51:17.648Z,78.8818
2019-04-16T05:52:04.196Z,78.8818
2019-04-16T05:52:52.078Z,78.7781
2019-04-16T05:53:40.081Z,78.6377
2019-04-16T05:54:28.448Z,78.5339
2019-04-16T05:55:17.666Z,78.6377
2019-04-16T05:56:07.336Z,78.8086
2019-04-16T05:56:46.223Z,79.0161
2019-04-16T05:57:32.868Z,79.1199
2019-04-16T05:58:19.805Z,79.2908
2019-04-16T05:59:08.288Z,79.2908
2019-04-16T05:59:55.228Z,79.1870
2019-04-16T06:00:42.458Z,79.3945
2019-04-16T06:01:29.883Z,79.3945
2019-04-16T06:02:18.785Z,79.3945
2019-04-16T06:03:07.151Z,79.6631
2019-04-16T06:03:54.256Z,80.1819
2019-04-16T06:04:41.828Z,80.5969
2019-04-16T06:05:30.403Z,80.8044
2019-04-16T06:06:17.784Z,80.6580
2019-04-16T06:07:07.598Z,80.3528
2019-04-16T06:07:55.456Z,79.6936
2019-04-16T06:08:43.249Z,79.6570
2019-04-16T06:09:31.766Z,79.9316
2019-04-16T06:10:19.176Z,80.1025
2019-04-16T06:11:07.003Z,80.1636
2019-04-16T06:11:55.396Z,80.0232
2019-04-16T06:12:41.704Z,80.6091
2019-04-16T06:13:28.048Z,80.7739
2019-04-16T06:14:17.530Z,80.2246
2019-04-16T06:15:06.681Z,79.6692
2019-04-16T06:15:54.527Z,79.6326
2019-04-16T06:16:41.578Z,79.4922
2019-04-16T06:17:31.927Z,79.6997
2019-04-16T06:18:20.261Z,79.6631
2019-04-16T06:19:08.552Z,79.7302
2019-04-16T06:19:57.939Z,79.9988
2019-04-16T06:20:44.224Z,79.7974
2019-04-16T06:21:31.668Z,79.7546
2019-04-16T06:22:19.161Z,80.0293
2019-04-16T06:23:05.475Z,80.2307
2019-04-16T06:23:51.557Z,79.9927
2019-04-16T06:24:40.173Z,80.4016
2019-04-16T06:25:26.166Z,80.8105
2019-04-16T06:26:16.101Z,80.7739
2019-04-16T06:27:03.927Z,80.9753
2019-04-16T06:27:51.725Z,80.9387
2019-04-16T06:28:38.935Z,80.5969
2019-04-16T06:29:28.974Z,80.1880
2019-04-16T06:30:16.846Z,79.9805
2019-04-16T06:31:05.670Z,79.8767
2019-04-16T06:31:55.891Z,79.5349
2019-04-16T06:32:43.176Z,79.1260
2019-04-16T06:33:31.622Z,78.8818
2019-04-16T06:34:17.919Z,78.5767
2019-04-16T06:35:04.757Z,78.3752
2019-04-16T06:35:51.774Z,78.2043
2019-04-16T06:36:39.035Z,78.0029
2019-04-16T06:37:27.428Z,77.8320
2019-04-16T06:38:14.217Z,78.0762
2019-04-16T06:39:01.236Z,78.2104
2019-04-16T06:39:48.650Z,78.4546
2019-04-16T06:40:34.966Z,78.7964
2019-04-16T06:41:23.102Z,79.3457
2019-04-16T06:42:10.720Z,79.9988
2019-04-16T06:42:57.966Z,81.2317
2019-04-16T06:43:44.265Z,82.0496
2019-04-16T06:44:34.856Z,82.1167
2019-04-16T06:45:21.201Z,82.0496
2019-04-16T06:46:29.632Z,82.0496
2019-04-16T06:47:17.073Z,82.6294
2019-04-16T06:48:04.013Z,82.7942
2019-04-16T06:48:50.690Z,82.4463
2019-04-16T06:49:39.590Z,81.7932
2019-04-16T06:50:32.534Z,80.7983
2019-04-16T06:51:20.306Z,80.1086
2019-04-16T06:52:07.351Z,79.4617
2019-04-16T06:52:54.685Z,78.8086
2019-04-16T06:53:41.960Z,78.2288
2019-04-16T06:54:32.838Z,77.5818
2019-04-16T06:55:20.834Z,76.8311
2019-04-16T06:56:09.469Z,76.4893
2019-04-16T06:56:57.250Z,75.9460
2019-04-16T06:57:44.507Z,75.5005
2019-04-16T06:58:49.941Z,75.1953
2019-04-16T06:59:26.400Z,74.8535
2019-04-16T07:00:16.402Z,74.5178
2019-04-16T07:01:06.011Z,73.9746
2019-04-16T07:01:56.500Z,73.7366
2019-04-16T07:03:01.689Z,73.5962
2019-04-16T07:03:37.876Z,73.2605
2019-04-16T07:04:29.503Z,72.4121
2019-04-16T07:05:33.238Z,71.6675
2019-04-16T07:06:20.451Z,70.9290
2019-04-16T07:07:09.474Z,70.6238
2019-04-16T07:07:55.937Z,69.9829
2019-04-16T07:08:43.419Z,69.9463
2019-04-16T07:09:41.543Z,69.5129
2019-04-16T07:10:28.920Z,69.0735
2019-04-16T07:11:16.711Z,68.4326
2019-04-16T07:12:03.071Z,67.8650
2019-04-16T07:12:51.268Z,67.1265
2019-04-16T07:13:42.115Z,66.4917
2019-04-16T07:14:31.049Z,65.6494
2019-04-16T07:15:22.805Z,65.2161
2019-04-16T07:16:10.928Z,64.3494
2019-04-16T07:17:00.153Z,63.5437
2019-04-16T07:17:48.388Z,63.3118
2019-04-16T07:18:38.450Z,62.4756
2019-04-16T07:19:26.214Z,61.9446
2019-04-16T07:20:17.414Z,61.4136
2019-04-16T07:21:05.163Z,61.3098
2019-04-16T07:21:51.477Z,61.1145
2019-04-16T07:22:38.692Z,61.0413
2019-04-16T07:23:25.947Z,61.0718
2019-04-16T07:24:13.360Z,61.4014
2019-04-16T07:25:04.433Z,61.8347
2019-04-16T07:25:53.042Z,62.7686
2019-04-16T07:26:40.137Z,63.2019
2019-04-16T07:27:27.493Z,63.5315
2019-04-16T07:29:11.890Z,63.8245
2019-04-16T07:30:05.143Z,64.5630
2019-04-16T07:30:52.621Z,65.3015
2019-04-16T07:31:44.056Z,65.9363
2019-04-16T07:32:35.328Z,66.1743
2019-04-16T07:33:22.252Z,65.8997
2019-04-16T07:34:11.154Z,66.6077
2019-04-16T07:34:58.571Z,66.5039
2019-04-16T07:36:42.949Z,66.4368
2019-04-16T07:37:33.220Z,66.7725
2019-04-16T07:38:27.804Z,67.3828
2019-04-16T07:39:28.631Z,67.4805
2019-04-16T07:41:05.236Z,67.6819
2019-04-16T07:42:07.813Z,67.4805
2019-04-16T07:42:51.725Z,67.5110
2019-04-16T07:43:36.068Z,67.4133
2019-04-16T07:44:23.404Z,67.6147
2019-04-16T07:45:12.511Z,67.9199
2019-04-16T07:46:00.488Z,67.5110
2019-04-16T07:46:48.244Z,66.9739
2019-04-16T07:47:34.603Z,66.6687
2019-04-16T07:48:23.066Z,66.6382
2019-04-16T07:49:13.573Z,66.4368
2019-04-16T07:50:01.422Z,66.2354
2019-04-16T07:51:44.973Z,66.0034
2019-04-16T07:52:33.324Z,65.6677
2019-04-16T07:53:22.577Z,64.8254
2019-04-16T07:54:11.372Z,64.1602
2019-04-16T07:54:59.804Z,62.8174
2019-04-16T07:55:47.961Z,60.9680
2019-04-16T07:56:35.513Z,60.1318
2019-04-16T07:57:22.980Z,59.8022
2019-04-16T07:58:09.418Z,59.0393
2019-04-16T07:59:00.058Z,58.0750
2019-04-16T07:59:49.288Z,56.8420
2019-04-16T08:00:40.395Z,55.9875
2019-04-16T08:01:27.713Z,55.1575
2019-04-16T08:02:17.673Z,54.2969
2019-04-16T08:03:09.251Z,53.2959
2019-04-16T08:04:00.909Z,52.3682
2019-04-16T08:04:50.971Z,52.0691
2019-04-16T08:05:37.763Z,51.7639
2019-04-16T08:06:28.029Z,51.7639
2019-04-16T08:07:20.130Z,51.4648
2019-04-16T08:08:09.945Z,51.6663
2019-04-16T08:08:57.091Z,51.3672
2019-04-16T08:09:46.022Z,51.1658
2019-04-16T08:10:33.063Z,51.6907
2019-04-16T08:11:23.300Z,51.2634
2019-04-16T08:12:28.682Z,51.0620
2019-04-16T08:13:07.296Z,50.9644
2019-04-16T08:13:55.777Z,51.0620
2019-04-16T08:14:42.716Z,50.8606
2019-04-16T08:15:31.067Z,50.9644
2019-04-16T08:16:17.234Z,50.7629
2019-04-16T08:17:05.128Z,50.5615
2019-04-16T08:17:52.723Z,50.0610
2019-04-16T08:18:38.800Z,49.5605
2019-04-16T08:19:36.598Z,49.5605
2019-04-16T08:20:21.372Z,49.5605
2019-04-16T08:21:12.097Z,49.5605
2019-04-16T08:22:05.471Z,49.4568
2019-04-16T08:22:53.310Z,48.9807
2019-04-16T08:23:40.353Z,49.0784
2019-04-16T08:24:33.942Z,49.5789
2019-04-16T08:25:22.412Z,50.0061
2019-04-16T08:26:12.885Z,49.8047
2019-04-16T08:27:02.463Z,49.3042
2019-04-16T08:27:54.021Z,49.1028
2019-04-16T08:28:41.396Z,49.5056
2019-04-16T08:29:27.773Z,49.6033
2019-04-16T08:34:23.880Z,48.5535
2019-04-16T08:35:10.980Z,48.6572
2019-04-16T08:37:00.205Z,48.3093
2019-04-16T08:37:52.336Z,47.6868
2019-04-16T08:38:40.945Z,47.4609
2019-04-16T08:39:26.272Z,47.1375
2019-04-16T08:43:21.533Z,44.5068
2019-04-16T08:47:18.097Z,42.0715
2019-04-16T08:48:04.417Z,41.8518
2019-04-16T08:48:54.357Z,41.7358
2019-04-16T08:49:42.256Z,41.4185
2019-04-16T08:50:31.448Z,41.0156
2019-04-16T08:51:29.667Z,40.9180
2019-04-16T08:52:12.397Z,40.6982
2019-04-16T08:53:00.185Z,40.5029
2019-04-16T08:54:50.396Z,39.6301
2019-04-16T08:55:39.135Z,40.1428
2019-04-16T08:56:29.883Z,40.3625
2019-04-16T08:57:18.050Z,40.5579
2019-04-16T08:58:12.294Z,40.3809
2019-04-16T08:59:57.966Z,40.5029
2019-04-16T09:00:46.632Z,40.5029
2019-04-16T09:01:35.597Z,40.7166
2019-04-16T09:02:15.170Z,40.6189
2019-04-16T09:03:02.781Z,40.7166
2019-04-16T09:03:51.124Z,41.2354
2019-04-16T09:04:37.529Z,41.2354
2019-04-16T09:05:26.631Z,40.9363
2019-04-16T09:06:15.475Z,40.9363
2019-04-16T09:08:12.270Z,41.1194
2019-04-16T09:08:55.061Z,40.8386
2019-04-16T09:09:42.532Z,40.5396
2019-04-16T09:10:32.048Z,40.0391
2019-04-16T09:11:23.553Z,40.7410
2019-04-16T09:12:12.248Z,40.2405
2019-04-16T09:13:04.129Z,40.4419
2019-04-16T09:13:54.731Z,40.4419
2019-04-16T09:14:44.030Z,40.6372
2019-04-16T09:15:30.792Z,40.5396
2019-04-16T09:16:19.580Z,40.2405
2019-04-16T09:17:09.403Z,40.3381
2019-04-16T09:17:57.066Z,40.5396
2019-04-16T09:18:45.799Z,40.3381
2019-04-16T09:19:33.431Z,39.8438
2019-04-16T09:20:22.912Z,40.0391
2019-04-16T09:24:11.925Z,40.1794
2019-04-16T09:24:59.868Z,40.1611
2019-04-16T09:25:48.756Z,40.0452
2019-04-16T09:26:36.369Z,39.4287
2019-04-16T09:28:26.983Z,37.6038
2019-04-16T09:29:16.252Z,37.6892
2019-04-16T09:31:00.673Z,37.4329
2019-04-16T09:31:47.380Z,37.2192
2019-04-16T09:34:40.342Z,35.0708
2019-04-16T09:37:28.406Z,35.1379
2019-04-16T09:42:01.667Z,34.7229
2019-04-16T09:42:53.230Z,34.9060
2019-04-16T09:44:02.166Z,35.3821
2019-04-16T09:51:52.067Z,31.8726
2019-04-16T09:52:38.505Z,31.7749
2019-04-16T09:57:39.922Z,31.9031
2019-04-16T10:00:27.412Z,31.3843
2019-04-16T10:03:21.778Z,30.7800
2019-04-16T10:05:06.714Z,30.0964
2019-04-16T10:05:53.582Z,30.1086
2019-04-16T10:10:53.366Z,30.3894
2019-04-16T10:11:39.662Z,31.3538
2019-04-16T10:13:35.996Z,30.8350
2019-04-16T10:18:24.685Z,28.8879
2019-04-16T10:19:12.669Z,28.9856
2019-04-16T10:19:59.394Z,29.2969
2019-04-16T10:21:44.125Z,29.2969
2019-04-16T10:23:29.585Z,28.6072
2019-04-16T10:24:17.831Z,28.5095
2019-04-16T10:26:07.441Z,28.8086
2019-04-16T10:26:56.808Z,28.6926
2019-04-16T10:28:44.126Z,28.9734
2019-04-16T10:29:32.022Z,27.9968
2019-04-16T10:33:23.019Z,28.6682
2019-04-16T10:34:14.140Z,28.4546
2019-04-16T10:35:02.301Z,28.2593
2019-04-16T10:37:53.080Z,27.0752
2019-04-16T10:39:56.718Z,27.2705
2019-04-16T10:41:56.491Z,26.6846
2019-04-16T10:43:50.950Z,26.1108
2019-04-16T10:44:43.442Z,26.4038
2019-04-16T10:45:33.286Z,28.2471
2019-04-16T10:46:21.416Z,28.0396
2019-04-16T10:49:06.729Z,26.9104
2019-04-16T10:51:51.587Z,26.1292
2019-04-16T10:52:39.003Z,26.0315
2019-04-16T10:53:25.413Z,25.5310
2019-04-16T10:56:12.769Z,25.8118
2019-04-16T10:56:59.076Z,25.4211